sensor_id;sensor_type;location;lat;lon;timestamp;P1;durP1;ratioP1;P2;durP2;ratioP2
15192;SDS011;7697;51.630;7.484;2023-03-01T00:02:52;5.77;;;3.93;;
15192;SDS011;7697;51.630;7.484;2023-03-01T00:07:53;4.87;;;3.60;;
15192;SDS011;7697;51.630;7.484;2023-03-01T00:12:55;4.33;;;3.43;;
15192;SDS011;7697;51.630;7.484;2023-03-01T00:17:58;4.43;;;4.00;;
15192;SDS011;7697;51.630;7.484;2023-03-01T00:23:00;4.63;;;3.67;;
15192;SDS011;7697;51.630;7.484;2023-03-01T00:28:02;4.10;;;3.40;;
15192;SDS011;7697;51.630;7.484;2023-03-01T00:33:05;4.63;;;3.80;;
15192;SDS011;7697;51.630;7.484;2023-03-01T00:38:07;5.13;;;3.60;;
15192;SDS011;7697;51.630;7.484;2023-03-01T00:43:09;4.60;;;3.77;;
15192;SDS011;7697;51.630;7.484;2023-03-01T00:48:12;4.97;;;3.60;;
15192;SDS011;7697;51.630;7.484;2023-03-01T00:53:14;4.33;;;3.60;;
15192;SDS011;7697;51.630;7.484;2023-03-01T00:58:16;5.57;;;3.93;;
15192;SDS011;7697;51.630;7.484;2023-03-01T01:03:19;4.40;;;3.50;;
15192;SDS011;7697;51.630;7.484;2023-03-01T01:08:21;5.13;;;3.63;;
15192;SDS011;7697;51.630;7.484;2023-03-01T01:13:23;4.63;;;3.80;;
15192;SDS011;7697;51.630;7.484;2023-03-01T01:18:26;5.07;;;3.87;;
15192;SDS011;7697;51.630;7.484;2023-03-01T01:23:27;3.90;;;3.50;;
15192;SDS011;7697;51.630;7.484;2023-03-01T01:28:29;4.03;;;3.63;;
15192;SDS011;7697;51.630;7.484;2023-03-01T01:33:32;4.73;;;3.80;;
15192;SDS011;7697;51.630;7.484;2023-03-01T01:38:35;5.20;;;3.93;;
15192;SDS011;7697;51.630;7.484;2023-03-01T01:43:40;6.13;;;3.90;;
15192;SDS011;7697;51.630;7.484;2023-03-01T01:48:46;4.90;;;4.10;;
15192;SDS011;7697;51.630;7.484;2023-03-01T01:53:51;5.20;;;3.80;;
15192;SDS011;7697;51.630;7.484;2023-03-01T01:58:56;4.43;;;3.83;;
15192;SDS011;7697;51.630;7.484;2023-03-01T02:04:00;5.37;;;4.17;;
15192;SDS011;7697;51.630;7.484;2023-03-01T02:09:02;5.77;;;3.80;;
15192;SDS011;7697;51.630;7.484;2023-03-01T02:14:07;4.23;;;3.83;;
15192;SDS011;7697;51.630;7.484;2023-03-01T02:19:13;4.37;;;3.53;;
15192;SDS011;7697;51.630;7.484;2023-03-01T02:24:26;4.73;;;3.93;;
15192;SDS011;7697;51.630;7.484;2023-03-01T02:29:35;6.90;;;4.50;;
15192;SDS011;7697;51.630;7.484;2023-03-01T02:34:36;4.77;;;3.80;;
15192;SDS011;7697;51.630;7.484;2023-03-01T02:39:43;4.47;;;3.67;;
15192;SDS011;7697;51.630;7.484;2023-03-01T02:44:50;4.70;;;3.90;;
15192;SDS011;7697;51.630;7.484;2023-03-01T02:49:52;4.90;;;3.63;;
15192;SDS011;7697;51.630;7.484;2023-03-01T02:54:55;4.33;;;3.70;;
15192;SDS011;7697;51.630;7.484;2023-03-01T03:00:04;5.20;;;4.40;;
15192;SDS011;7697;51.630;7.484;2023-03-01T03:05:08;7.13;;;4.40;;
15192;SDS011;7697;51.630;7.484;2023-03-01T03:10:13;5.00;;;3.70;;
15192;SDS011;7697;51.630;7.484;2023-03-01T03:15:18;6.33;;;4.47;;
15192;SDS011;7697;51.630;7.484;2023-03-01T03:20:21;5.47;;;4.53;;
15192;SDS011;7697;51.630;7.484;2023-03-01T03:25:26;5.10;;;4.37;;
15192;SDS011;7697;51.630;7.484;2023-03-01T03:30:30;6.20;;;4.67;;
15192;SDS011;7697;51.630;7.484;2023-03-01T03:35:33;6.50;;;4.73;;
15192;SDS011;7697;51.630;7.484;2023-03-01T03:40:39;6.00;;;4.60;;
15192;SDS011;7697;51.630;7.484;2023-03-01T03:45:44;6.27;;;4.53;;
15192;SDS011;7697;51.630;7.484;2023-03-01T03:50:47;5.60;;;4.60;;
15192;SDS011;7697;51.630;7.484;2023-03-01T03:55:50;6.03;;;4.83;;
15192;SDS011;7697;51.630;7.484;2023-03-01T04:00:54;6.13;;;4.40;;
15192;SDS011;7697;51.630;7.484;2023-03-01T04:05:58;5.20;;;4.20;;
15192;SDS011;7697;51.630;7.484;2023-03-01T04:11:00;5.57;;;4.90;;
15192;SDS011;7697;51.630;7.484;2023-03-01T04:16:26;5.30;;;4.47;;
15192;SDS011;7697;51.630;7.484;2023-03-01T04:21:28;6.77;;;4.80;;
15192;SDS011;7697;51.630;7.484;2023-03-01T04:26:30;5.40;;;4.60;;
15192;SDS011;7697;51.630;7.484;2023-03-01T04:31:33;7.00;;;4.70;;
15192;SDS011;7697;51.630;7.484;2023-03-01T04:36:35;6.00;;;4.90;;
15192;SDS011;7697;51.630;7.484;2023-03-01T04:41:37;5.57;;;4.60;;
15192;SDS011;7697;51.630;7.484;2023-03-01T04:46:42;6.30;;;4.77;;
15192;SDS011;7697;51.630;7.484;2023-03-01T04:51:43;6.33;;;4.83;;
15192;SDS011;7697;51.630;7.484;2023-03-01T04:56:45;5.70;;;4.57;;
15192;SDS011;7697;51.630;7.484;2023-03-01T05:01:48;6.00;;;4.77;;
15192;SDS011;7697;51.630;7.484;2023-03-01T05:06:50;7.43;;;5.40;;
15192;SDS011;7697;51.630;7.484;2023-03-01T05:11:53;7.50;;;5.47;;
15192;SDS011;7697;51.630;7.484;2023-03-01T05:16:57;6.97;;;5.30;;
15192;SDS011;7697;51.630;7.484;2023-03-01T05:22:03;6.93;;;5.20;;
15192;SDS011;7697;51.630;7.484;2023-03-01T05:27:05;7.63;;;5.10;;
15192;SDS011;7697;51.630;7.484;2023-03-01T05:32:09;6.30;;;4.50;;
15192;SDS011;7697;51.630;7.484;2023-03-01T05:37:15;7.20;;;5.00;;
15192;SDS011;7697;51.630;7.484;2023-03-01T05:42:17;5.97;;;4.93;;
15192;SDS011;7697;51.630;7.484;2023-03-01T05:47:20;6.77;;;5.23;;
15192;SDS011;7697;51.630;7.484;2023-03-01T05:52:22;6.87;;;5.17;;
15192;SDS011;7697;51.630;7.484;2023-03-01T05:57:24;6.63;;;5.20;;
15192;SDS011;7697;51.630;7.484;2023-03-01T06:02:27;6.77;;;5.00;;
15192;SDS011;7697;51.630;7.484;2023-03-01T06:07:29;7.77;;;4.90;;
15192;SDS011;7697;51.630;7.484;2023-03-01T06:12:34;7.03;;;4.97;;
15192;SDS011;7697;51.630;7.484;2023-03-01T06:17:39;6.70;;;4.60;;
15192;SDS011;7697;51.630;7.484;2023-03-01T06:22:42;7.63;;;4.90;;
15192;SDS011;7697;51.630;7.484;2023-03-01T06:27:45;8.13;;;5.27;;
15192;SDS011;7697;51.630;7.484;2023-03-01T06:32:50;8.67;;;5.40;;
15192;SDS011;7697;51.630;7.484;2023-03-01T06:37:51;7.60;;;5.67;;
15192;SDS011;7697;51.630;7.484;2023-03-01T06:42:53;8.40;;;5.47;;
15192;SDS011;7697;51.630;7.484;2023-03-01T06:48:02;9.47;;;6.20;;
15192;SDS011;7697;51.630;7.484;2023-03-01T06:53:05;10.63;;;6.30;;
15192;SDS011;7697;51.630;7.484;2023-03-01T06:58:06;9.77;;;6.70;;
15192;SDS011;7697;51.630;7.484;2023-03-01T07:03:11;9.60;;;5.77;;
15192;SDS011;7697;51.630;7.484;2023-03-01T07:08:13;7.17;;;5.60;;
15192;SDS011;7697;51.630;7.484;2023-03-01T07:13:15;9.13;;;6.27;;
15192;SDS011;7697;51.630;7.484;2023-03-01T07:18:18;7.73;;;6.00;;
15192;SDS011;7697;51.630;7.484;2023-03-01T07:23:19;8.30;;;6.17;;
15192;SDS011;7697;51.630;7.484;2023-03-01T07:28:22;11.13;;;6.57;;
15192;SDS011;7697;51.630;7.484;2023-03-01T07:33:25;8.77;;;6.13;;
15192;SDS011;7697;51.630;7.484;2023-03-01T07:38:28;11.47;;;7.80;;
15192;SDS011;7697;51.630;7.484;2023-03-01T07:43:30;9.93;;;7.43;;
15192;SDS011;7697;51.630;7.484;2023-03-01T07:48:33;9.90;;;7.20;;
15192;SDS011;7697;51.630;7.484;2023-03-01T07:53:35;11.60;;;6.80;;
15192;SDS011;7697;51.630;7.484;2023-03-01T07:58:37;10.93;;;7.30;;
15192;SDS011;7697;51.630;7.484;2023-03-01T08:03:42;9.93;;;7.60;;
15192;SDS011;7697;51.630;7.484;2023-03-01T08:08:44;11.37;;;7.50;;
15192;SDS011;7697;51.630;7.484;2023-03-01T08:13:47;9.97;;;7.73;;
15192;SDS011;7697;51.630;7.484;2023-03-01T08:18:51;9.80;;;7.83;;
15192;SDS011;7697;51.630;7.484;2023-03-01T08:23:54;10.53;;;7.83;;
15192;SDS011;7697;51.630;7.484;2023-03-01T08:28:56;11.07;;;7.67;;
15192;SDS011;7697;51.630;7.484;2023-03-01T08:34:00;11.13;;;8.17;;
15192;SDS011;7697;51.630;7.484;2023-03-01T08:39:04;12.53;;;8.60;;
15192;SDS011;7697;51.630;7.484;2023-03-01T08:44:06;11.93;;;9.03;;
15192;SDS011;7697;51.630;7.484;2023-03-01T08:49:10;8.87;;;7.53;;
15192;SDS011;7697;51.630;7.484;2023-03-01T08:54:15;11.83;;;8.43;;
15192;SDS011;7697;51.630;7.484;2023-03-01T08:59:18;9.47;;;7.37;;
15192;SDS011;7697;51.630;7.484;2023-03-01T09:04:22;10.40;;;6.93;;
15192;SDS011;7697;51.630;7.484;2023-03-01T09:09:23;11.90;;;7.40;;
15192;SDS011;7697;51.630;7.484;2023-03-01T09:14:25;9.83;;;6.60;;
15192;SDS011;7697;51.630;7.484;2023-03-01T09:19:28;9.27;;;6.53;;
15192;SDS011;7697;51.630;7.484;2023-03-01T09:24:30;9.10;;;7.03;;
15192;SDS011;7697;51.630;7.484;2023-03-01T09:29:32;9.30;;;6.80;;
15192;SDS011;7697;51.630;7.484;2023-03-01T09:34:35;8.63;;;6.37;;
15192;SDS011;7697;51.630;7.484;2023-03-01T09:39:58;8.23;;;6.30;;
15192;SDS011;7697;51.630;7.484;2023-03-01T09:45:00;11.10;;;5.93;;
15192;SDS011;7697;51.630;7.484;2023-03-01T09:50:08;8.87;;;6.10;;
15192;SDS011;7697;51.630;7.484;2023-03-01T09:55:13;8.70;;;5.83;;
15192;SDS011;7697;51.630;7.484;2023-03-01T10:00:22;7.90;;;5.80;;
15192;SDS011;7697;51.630;7.484;2023-03-01T10:05:35;8.90;;;6.47;;
15192;SDS011;7697;51.630;7.484;2023-03-01T10:10:43;10.83;;;6.43;;
15192;SDS011;7697;51.630;7.484;2023-03-01T10:15:48;7.83;;;5.53;;
15192;SDS011;7697;51.630;7.484;2023-03-01T10:20:57;6.77;;;4.83;;
15192;SDS011;7697;51.630;7.484;2023-03-01T10:26:06;6.67;;;5.30;;
15192;SDS011;7697;51.630;7.484;2023-03-01T10:31:24;7.43;;;5.57;;
15192;SDS011;7697;51.630;7.484;2023-03-01T10:36:30;8.57;;;5.43;;
15192;SDS011;7697;51.630;7.484;2023-03-01T10:41:35;14.27;;;7.00;;
15192;SDS011;7697;51.630;7.484;2023-03-01T10:46:58;10.20;;;6.00;;
15192;SDS011;7697;51.630;7.484;2023-03-01T10:52:11;10.77;;;5.83;;
15192;SDS011;7697;51.630;7.484;2023-03-01T10:57:29;11.90;;;6.60;;
15192;SDS011;7697;51.630;7.484;2023-03-01T11:02:37;6.77;;;5.13;;
15192;SDS011;7697;51.630;7.484;2023-03-01T11:07:51;9.53;;;6.20;;
15192;SDS011;7697;51.630;7.484;2023-03-01T11:13:05;9.13;;;6.55;;
15192;SDS011;7697;51.630;7.484;2023-03-01T11:18:17;9.65;;;6.40;;
15192;SDS011;7697;51.630;7.484;2023-03-01T11:23:23;7.90;;;5.28;;
15192;SDS011;7697;51.630;7.484;2023-03-01T11:28:27;8.23;;;5.25;;
15192;SDS011;7697;51.630;7.484;2023-03-01T11:33:33;7.00;;;5.47;;
15192;SDS011;7697;51.630;7.484;2023-03-01T11:38:39;6.28;;;5.22;;
15192;SDS011;7697;51.630;7.484;2023-03-01T11:43:44;8.27;;;5.45;;
15192;SDS011;7697;51.630;7.484;2023-03-01T11:48:56;7.03;;;5.07;;
15192;SDS011;7697;51.630;7.484;2023-03-01T11:54:17;9.20;;;5.45;;
15192;SDS011;7697;51.630;7.484;2023-03-01T11:59:36;7.57;;;5.40;;
15192;SDS011;7697;51.630;7.484;2023-03-01T12:05:09;7.30;;;5.60;;
15192;SDS011;7697;51.630;7.484;2023-03-01T12:10:25;6.85;;;5.35;;
15192;SDS011;7697;51.630;7.484;2023-03-01T12:15:39;6.57;;;5.35;;
15192;SDS011;7697;51.630;7.484;2023-03-01T12:20:53;10.18;;;6.13;;
15192;SDS011;7697;51.630;7.484;2023-03-01T12:26:05;8.05;;;5.22;;
15192;SDS011;7697;51.630;7.484;2023-03-01T12:31:14;6.88;;;5.32;;
15192;SDS011;7697;51.630;7.484;2023-03-01T12:41:58;7.25;;;5.47;;
15192;SDS011;7697;51.630;7.484;2023-03-01T12:47:11;8.25;;;5.85;;
15192;SDS011;7697;51.630;7.484;2023-03-01T12:52:26;7.18;;;5.82;;
15192;SDS011;7697;51.630;7.484;2023-03-01T12:57:36;6.80;;;5.50;;
15192;SDS011;7697;51.630;7.484;2023-03-01T13:02:45;7.72;;;6.60;;
15192;SDS011;7697;51.630;7.484;2023-03-01T13:07:53;7.90;;;5.90;;
15192;SDS011;7697;51.630;7.484;2023-03-01T13:13:09;9.13;;;6.80;;
15192;SDS011;7697;51.630;7.484;2023-03-01T13:18:28;9.13;;;6.53;;
15192;SDS011;7697;51.630;7.484;2023-03-01T13:23:34;6.50;;;5.25;;
15192;SDS011;7697;51.630;7.484;2023-03-01T13:28:50;6.68;;;5.18;;
15192;SDS011;7697;51.630;7.484;2023-03-01T13:33:57;7.53;;;5.70;;
15192;SDS011;7697;51.630;7.484;2023-03-01T13:38:59;7.05;;;5.82;;
15192;SDS011;7697;51.630;7.484;2023-03-01T13:44:07;7.70;;;6.72;;
15192;SDS011;7697;51.630;7.484;2023-03-01T13:49:14;7.45;;;6.18;;
15192;SDS011;7697;51.630;7.484;2023-03-01T13:54:22;6.82;;;5.57;;
15192;SDS011;7697;51.630;7.484;2023-03-01T13:59:29;6.47;;;5.72;;
15192;SDS011;7697;51.630;7.484;2023-03-01T14:04:31;7.10;;;5.63;;
15192;SDS011;7697;51.630;7.484;2023-03-01T14:09:36;7.28;;;6.10;;
15192;SDS011;7697;51.630;7.484;2023-03-01T14:14:44;10.30;;;5.97;;
15192;SDS011;7697;51.630;7.484;2023-03-01T14:19:55;7.13;;;5.85;;
15192;SDS011;7697;51.630;7.484;2023-03-01T14:24:59;7.65;;;6.00;;
15192;SDS011;7697;51.630;7.484;2023-03-01T14:30:09;8.20;;;6.30;;
15192;SDS011;7697;51.630;7.484;2023-03-01T14:35:19;10.20;;;8.30;;
15192;SDS011;7697;51.630;7.484;2023-03-01T14:40:23;9.13;;;6.65;;
15192;SDS011;7697;51.630;7.484;2023-03-01T14:45:29;7.07;;;5.20;;
15192;SDS011;7697;51.630;7.484;2023-03-01T14:50:32;6.78;;;5.45;;
15192;SDS011;7697;51.630;7.484;2023-03-01T14:55:36;7.47;;;4.88;;
15192;SDS011;7697;51.630;7.484;2023-03-01T15:00:43;7.25;;;4.50;;
15192;SDS011;7697;51.630;7.484;2023-03-01T15:05:51;18.33;;;13.05;;
15192;SDS011;7697;51.630;7.484;2023-03-01T15:10:58;6.80;;;5.18;;
15192;SDS011;7697;51.630;7.484;2023-03-01T15:16:04;6.82;;;4.88;;
15192;SDS011;7697;51.630;7.484;2023-03-01T15:21:13;5.70;;;4.53;;
15192;SDS011;7697;51.630;7.484;2023-03-01T15:26:21;6.05;;;4.32;;
15192;SDS011;7697;51.630;7.484;2023-03-01T15:31:27;5.45;;;4.72;;
15192;SDS011;7697;51.630;7.484;2023-03-01T15:36:36;6.20;;;4.55;;
15192;SDS011;7697;51.630;7.484;2023-03-01T15:41:46;6.43;;;4.32;;
15192;SDS011;7697;51.630;7.484;2023-03-01T15:46:50;5.78;;;4.25;;
15192;SDS011;7697;51.630;7.484;2023-03-01T15:51:53;5.05;;;4.18;;
15192;SDS011;7697;51.630;7.484;2023-03-01T15:56:56;5.93;;;4.43;;
15192;SDS011;7697;51.630;7.484;2023-03-01T16:01:59;6.40;;;4.90;;
15192;SDS011;7697;51.630;7.484;2023-03-01T16:07:01;6.35;;;4.50;;
15192;SDS011;7697;51.630;7.484;2023-03-01T16:12:03;5.60;;;4.40;;
15192;SDS011;7697;51.630;7.484;2023-03-01T16:17:08;5.90;;;4.70;;
15192;SDS011;7697;51.630;7.484;2023-03-01T16:22:10;5.95;;;4.60;;
15192;SDS011;7697;51.630;7.484;2023-03-01T16:27:12;4.72;;;4.20;;
15192;SDS011;7697;51.630;7.484;2023-03-01T16:32:16;7.95;;;5.10;;
15192;SDS011;7697;51.630;7.484;2023-03-01T16:37:18;8.18;;;5.05;;
15192;SDS011;7697;51.630;7.484;2023-03-01T16:42:21;5.75;;;4.22;;
15192;SDS011;7697;51.630;7.484;2023-03-01T16:47:25;7.28;;;5.22;;
15192;SDS011;7697;51.630;7.484;2023-03-01T16:52:26;7.70;;;5.10;;
15192;SDS011;7697;51.630;7.484;2023-03-01T16:57:28;7.03;;;4.85;;
15192;SDS011;7697;51.630;7.484;2023-03-01T17:02:31;5.88;;;4.55;;
15192;SDS011;7697;51.630;7.484;2023-03-01T17:07:33;5.22;;;4.30;;
15192;SDS011;7697;51.630;7.484;2023-03-01T17:12:36;5.13;;;3.92;;
15192;SDS011;7697;51.630;7.484;2023-03-01T17:17:39;4.88;;;4.03;;
15192;SDS011;7697;51.630;7.484;2023-03-01T17:22:41;10.25;;;7.00;;
15192;SDS011;7697;51.630;7.484;2023-03-01T17:27:43;7.97;;;6.00;;
15192;SDS011;7697;51.630;7.484;2023-03-01T17:32:46;8.10;;;5.07;;
15192;SDS011;7697;51.630;7.484;2023-03-01T17:37:48;7.07;;;5.03;;
15192;SDS011;7697;51.630;7.484;2023-03-01T17:42:50;6.03;;;4.70;;
15192;SDS011;7697;51.630;7.484;2023-03-01T17:47:53;6.43;;;4.57;;
15192;SDS011;7697;51.630;7.484;2023-03-01T17:52:54;5.83;;;4.60;;
15192;SDS011;7697;51.630;7.484;2023-03-01T17:57:57;5.20;;;4.23;;
15192;SDS011;7697;51.630;7.484;2023-03-01T18:03:01;7.80;;;5.83;;
15192;SDS011;7697;51.630;7.484;2023-03-01T18:08:03;6.10;;;4.60;;
15192;SDS011;7697;51.630;7.484;2023-03-01T18:13:05;6.23;;;4.77;;
15192;SDS011;7697;51.630;7.484;2023-03-01T18:18:08;6.63;;;4.90;;
15192;SDS011;7697;51.630;7.484;2023-03-01T18:23:10;6.30;;;4.43;;
15192;SDS011;7697;51.630;7.484;2023-03-01T18:28:12;6.63;;;4.43;;
15192;SDS011;7697;51.630;7.484;2023-03-01T18:33:15;7.03;;;5.03;;
15192;SDS011;7697;51.630;7.484;2023-03-01T18:38:17;5.83;;;4.50;;
15192;SDS011;7697;51.630;7.484;2023-03-01T18:43:19;7.30;;;4.67;;
15192;SDS011;7697;51.630;7.484;2023-03-01T18:48:22;5.53;;;4.20;;
15192;SDS011;7697;51.630;7.484;2023-03-01T18:53:24;5.17;;;4.30;;
15192;SDS011;7697;51.630;7.484;2023-03-01T18:58:26;7.63;;;4.67;;
15192;SDS011;7697;51.630;7.484;2023-03-01T19:03:30;6.33;;;4.60;;
15192;SDS011;7697;51.630;7.484;2023-03-01T19:08:32;6.43;;;4.37;;
15192;SDS011;7697;51.630;7.484;2023-03-01T19:13:34;7.10;;;4.87;;
15192;SDS011;7697;51.630;7.484;2023-03-01T19:18:39;7.10;;;4.83;;
15192;SDS011;7697;51.630;7.484;2023-03-01T19:23:42;7.20;;;4.90;;
15192;SDS011;7697;51.630;7.484;2023-03-01T19:28:45;6.00;;;4.70;;
15192;SDS011;7697;51.630;7.484;2023-03-01T19:33:48;7.53;;;4.83;;
15192;SDS011;7697;51.630;7.484;2023-03-01T19:38:51;5.90;;;4.17;;
15192;SDS011;7697;51.630;7.484;2023-03-01T19:43:53;6.77;;;4.17;;
15192;SDS011;7697;51.630;7.484;2023-03-01T19:48:57;6.47;;;4.47;;
15192;SDS011;7697;51.630;7.484;2023-03-01T19:54:00;6.67;;;4.50;;
15192;SDS011;7697;51.630;7.484;2023-03-01T19:59:01;6.57;;;4.50;;
15192;SDS011;7697;51.630;7.484;2023-03-01T20:04:05;7.37;;;4.40;;
15192;SDS011;7697;51.630;7.484;2023-03-01T20:09:08;6.40;;;4.60;;
15192;SDS011;7697;51.630;7.484;2023-03-01T20:14:09;7.00;;;4.60;;
15192;SDS011;7697;51.630;7.484;2023-03-01T20:19:13;6.30;;;4.93;;
15192;SDS011;7697;51.630;7.484;2023-03-01T20:24:15;5.97;;;4.33;;
15192;SDS011;7697;51.630;7.484;2023-03-01T20:29:17;7.93;;;5.03;;
15192;SDS011;7697;51.630;7.484;2023-03-01T20:34:20;8.43;;;5.07;;
15192;SDS011;7697;51.630;7.484;2023-03-01T20:39:22;10.40;;;6.23;;
15192;SDS011;7697;51.630;7.484;2023-03-01T20:44:23;8.50;;;5.53;;
15192;SDS011;7697;51.630;7.484;2023-03-01T20:49:27;7.73;;;4.97;;
15192;SDS011;7697;51.630;7.484;2023-03-01T20:54:29;5.87;;;4.77;;
15192;SDS011;7697;51.630;7.484;2023-03-01T20:59:30;5.90;;;4.57;;
15192;SDS011;7697;51.630;7.484;2023-03-01T21:04:35;6.60;;;4.73;;
15192;SDS011;7697;51.630;7.484;2023-03-01T21:09:37;9.10;;;5.27;;
15192;SDS011;7697;51.630;7.484;2023-03-01T21:14:38;6.83;;;5.00;;
15192;SDS011;7697;51.630;7.484;2023-03-01T21:19:44;7.77;;;4.90;;
15192;SDS011;7697;51.630;7.484;2023-03-01T21:24:45;7.00;;;4.73;;
15192;SDS011;7697;51.630;7.484;2023-03-01T21:29:48;8.80;;;5.30;;
15192;SDS011;7697;51.630;7.484;2023-03-01T21:34:51;6.87;;;4.97;;
15192;SDS011;7697;51.630;7.484;2023-03-01T21:39:53;8.40;;;5.03;;
15192;SDS011;7697;51.630;7.484;2023-03-01T21:44:56;6.83;;;5.10;;
15192;SDS011;7697;51.630;7.484;2023-03-01T21:49:59;6.50;;;4.63;;
15192;SDS011;7697;51.630;7.484;2023-03-01T21:55:00;6.67;;;4.97;;
15192;SDS011;7697;51.630;7.484;2023-03-01T22:00:03;8.20;;;5.20;;
15192;SDS011;7697;51.630;7.484;2023-03-01T22:05:08;6.60;;;4.80;;
15192;SDS011;7697;51.630;7.484;2023-03-01T22:10:10;9.83;;;5.03;;
15192;SDS011;7697;51.630;7.484;2023-03-01T22:15:12;7.40;;;4.97;;
15192;SDS011;7697;51.630;7.484;2023-03-01T22:20:15;6.60;;;4.77;;
15192;SDS011;7697;51.630;7.484;2023-03-01T22:25:17;7.47;;;5.17;;
15192;SDS011;7697;51.630;7.484;2023-03-01T22:30:19;6.07;;;4.50;;
15192;SDS011;7697;51.630;7.484;2023-03-01T22:35:22;6.97;;;4.53;;
15192;SDS011;7697;51.630;7.484;2023-03-01T22:40:23;9.27;;;5.40;;
15192;SDS011;7697;51.630;7.484;2023-03-01T22:45:26;6.43;;;4.37;;
15192;SDS011;7697;51.630;7.484;2023-03-01T22:50:30;6.23;;;4.60;;
15192;SDS011;7697;51.630;7.484;2023-03-01T22:55:32;5.90;;;4.40;;
15192;SDS011;7697;51.630;7.484;2023-03-01T23:00:34;6.77;;;4.97;;
15192;SDS011;7697;51.630;7.484;2023-03-01T23:05:37;5.83;;;4.37;;
15192;SDS011;7697;51.630;7.484;2023-03-01T23:10:42;5.13;;;4.00;;
15192;SDS011;7697;51.630;7.484;2023-03-01T23:15:51;5.50;;;4.20;;
15192;SDS011;7697;51.630;7.484;2023-03-01T23:20:54;6.30;;;4.50;;
15192;SDS011;7697;51.630;7.484;2023-03-01T23:25:57;7.67;;;4.30;;
15192;SDS011;7697;51.630;7.484;2023-03-01T23:30:59;6.33;;;3.97;;
15192;SDS011;7697;51.630;7.484;2023-03-01T23:36:04;5.33;;;3.97;;
15192;SDS011;7697;51.630;7.484;2023-03-01T23:41:07;7.13;;;4.43;;
15192;SDS011;7697;51.630;7.484;2023-03-01T23:46:09;5.70;;;3.83;;
15192;SDS011;7697;51.630;7.484;2023-03-01T23:51:15;7.00;;;4.97;;
15192;SDS011;7697;51.630;7.484;2023-03-01T23:56:18;5.77;;;4.33;;
